createdAt,value
2018-06-28T00:00:42.003Z,18.60
2018-06-28T00:03:10.961Z,18.60
2018-06-28T00:05:45.086Z,18.60
2018-06-28T00:10:47.856Z,18.50
2018-06-28T00:13:17.058Z,18.40
2018-06-28T00:15:49.033Z,18.40
2018-06-28T00:18:18.753Z,18.40
2018-06-28T00:20:52.161Z,18.40
2018-06-28T00:23:21.125Z,18.40
2018-06-28T00:25:54.575Z,18.40
2018-06-28T00:28:23.412Z,18.30
2018-06-28T00:33:24.864Z,18.30
2018-06-28T00:35:59.583Z,18.30
2018-06-28T00:38:28.928Z,18.20
2018-06-28T00:41:03.025Z,18.20
2018-06-28T00:43:32.690Z,18.10
2018-06-28T00:46:05.777Z,18.10
2018-06-28T00:48:35.091Z,18.10
2018-06-28T00:51:08.715Z,18.10
2018-06-28T00:53:37.394Z,18.10
2018-06-28T00:56:12.207Z,18.00
2018-06-28T00:58:42.973Z,18.00
2018-06-28T01:01:15.093Z,18.00
2018-06-28T01:03:46.232Z,18.00
2018-06-28T01:06:17.281Z,17.90
2018-06-28T01:08:46.501Z,17.90
2018-06-28T01:11:19.989Z,17.90
2018-06-28T01:13:48.749Z,17.90
2018-06-28T01:16:21.438Z,17.90
2018-06-28T01:18:50.191Z,17.80
2018-06-28T01:21:24.173Z,17.80
2018-06-28T01:23:53.074Z,17.80
2018-06-28T01:26:25.384Z,17.70
2018-06-28T01:28:54.249Z,17.80
2018-06-28T01:31:28.261Z,17.60
2018-06-28T01:33:57.395Z,17.60
2018-06-28T01:36:30.597Z,17.60
2018-06-28T01:38:59.372Z,17.60
2018-06-28T01:43:43.377Z,17.60
2018-06-28T01:46:12.169Z,17.60
2018-06-28T01:48:41.390Z,17.50
2018-06-28T01:51:10.393Z,17.50
2018-06-28T01:53:39.442Z,17.50
2018-06-28T01:56:08.729Z,17.50
2018-06-28T01:58:40.914Z,17.40
2018-06-28T02:01:09.899Z,17.40
2018-06-28T02:03:43.356Z,17.40
2018-06-28T02:06:12.053Z,17.40
2018-06-28T02:08:46.240Z,17.30
2018-06-28T02:11:15.493Z,17.30
2018-06-28T02:13:48.564Z,17.30
2018-06-28T02:16:17.392Z,17.20
2018-06-28T02:18:53.547Z,17.20
2018-06-28T02:21:22.262Z,17.20
2018-06-28T02:23:54.407Z,17.20
2018-06-28T02:26:24.061Z,17.20
2018-06-28T02:28:56.987Z,17.10
2018-06-28T02:31:25.689Z,17.10
2018-06-28T02:33:59.605Z,17.10
2018-06-28T02:36:28.504Z,17.00
2018-06-28T02:39:02.539Z,17.00
2018-06-28T02:41:31.348Z,16.90
2018-06-28T02:44:05.128Z,16.90
2018-06-28T02:46:34.140Z,16.90
2018-06-28T02:49:08.124Z,16.90
2018-06-28T02:51:37.212Z,16.80
2018-06-28T02:54:11.104Z,16.80
2018-06-28T02:56:40.080Z,16.80
2018-06-28T02:59:14.518Z,16.80
2018-06-28T03:01:43.627Z,16.80
2018-06-28T03:04:17.526Z,16.80
2018-06-28T03:06:46.258Z,16.80
2018-06-28T03:09:18.874Z,16.80
2018-06-28T03:11:47.954Z,16.70
2018-06-28T03:14:21.366Z,16.70
2018-06-28T03:16:50.152Z,16.70
2018-06-28T03:19:23.539Z,16.60
2018-06-28T03:21:52.310Z,16.70
2018-06-28T03:24:28.808Z,16.60
2018-06-28T03:26:57.729Z,16.60
2018-06-28T03:29:29.273Z,16.60
2018-06-28T03:31:58.518Z,16.60
2018-06-28T03:34:31.215Z,16.60
2018-06-28T03:37:00.031Z,16.50
2018-06-28T03:41:02.645Z,16.50
2018-06-28T03:43:35.291Z,16.60
2018-06-28T03:46:04.121Z,16.50
2018-06-28T03:48:37.756Z,16.50
2018-06-28T03:51:07.803Z,16.50
2018-06-28T03:53:40.937Z,16.50
2018-06-28T03:56:10.000Z,16.50
2018-06-28T03:58:42.489Z,16.50
2018-06-28T04:01:11.257Z,16.50
2018-06-28T04:03:44.834Z,16.50
2018-06-28T04:06:13.666Z,16.50
2018-06-28T04:11:15.109Z,16.50
2018-06-28T04:13:49.197Z,16.50
2018-06-28T04:16:18.027Z,16.50
2018-06-28T04:18:52.925Z,16.50
2018-06-28T04:21:21.727Z,16.50
2018-06-28T04:23:55.067Z,16.50
2018-06-28T04:26:24.466Z,16.40
2018-06-28T04:28:57.917Z,16.40
2018-06-28T04:31:26.739Z,16.50
2018-06-28T04:34:00.986Z,16.50
2018-06-28T04:36:29.791Z,16.40
2018-06-28T04:39:10.898Z,16.50
2018-06-28T04:41:40.013Z,16.50
2018-06-28T04:44:08.860Z,16.50
2018-06-28T04:46:37.649Z,16.50
2018-06-28T04:49:08.931Z,16.50
2018-06-28T04:51:37.681Z,16.50
2018-06-28T04:54:12.776Z,16.50
2018-06-28T04:56:41.876Z,16.60
2018-06-28T04:59:14.614Z,16.50
2018-06-28T05:01:43.409Z,16.60
2018-06-28T05:04:19.693Z,16.60
2018-06-28T05:06:49.033Z,16.70
2018-06-28T05:09:19.258Z,16.70
2018-06-28T05:11:48.422Z,16.70
2018-06-28T05:14:21.259Z,16.70
2018-06-28T05:16:50.059Z,16.80
2018-06-28T05:21:51.389Z,16.90
2018-06-28T05:24:26.711Z,16.90
2018-06-28T05:26:55.830Z,16.90
2018-06-28T05:29:28.868Z,17.00
2018-06-28T05:31:57.633Z,17.00
2018-06-28T05:34:31.327Z,17.10
2018-06-28T05:37:01.710Z,17.10
2018-06-28T05:39:33.615Z,17.10
2018-06-28T05:42:03.634Z,17.20
2018-06-28T05:47:04.661Z,17.30
2018-06-28T05:49:39.303Z,17.30
2018-06-28T05:52:08.256Z,17.40
2018-06-28T05:54:41.574Z,17.40
2018-06-28T05:57:10.685Z,17.50
2018-06-28T05:59:43.276Z,17.50
2018-06-28T06:02:12.461Z,17.60
2018-06-28T06:04:46.559Z,17.60
2018-06-28T06:07:15.683Z,17.70
2018-06-28T06:12:16.172Z,17.80
2018-06-28T06:14:50.622Z,17.90
2018-06-28T06:17:19.752Z,18.00
2018-06-28T06:19:53.369Z,18.00
2018-06-28T06:22:22.755Z,18.00
2018-06-28T06:24:55.594Z,18.00
2018-06-28T06:27:24.499Z,18.20
2018-06-28T06:29:59.128Z,18.20
2018-06-28T06:32:28.276Z,18.30
2018-06-28T06:35:01.245Z,18.40
2018-06-28T06:37:30.136Z,18.40
2018-06-28T06:40:05.413Z,18.50
2018-06-28T06:42:35.627Z,18.50
2018-06-28T06:45:07.884Z,18.60
2018-06-28T06:47:41.396Z,18.70
2018-06-28T06:50:15.181Z,18.80
2018-06-28T06:52:44.316Z,18.80
2018-06-28T06:55:13.977Z,18.80
2018-06-28T06:57:43.634Z,18.90
2018-06-28T07:00:18.126Z,19.00
2018-06-28T07:02:49.765Z,19.10
2018-06-28T07:05:18.580Z,19.20
2018-06-28T07:07:47.389Z,19.20
2018-06-28T07:10:20.735Z,19.30
2018-06-28T07:12:53.241Z,19.40
2018-06-28T07:15:27.451Z,19.40
2018-06-28T07:18:00.284Z,19.50
2018-06-28T07:20:32.704Z,19.60
2018-06-28T07:23:07.602Z,19.70
2018-06-28T07:25:38.910Z,19.70
2018-06-28T07:28:07.740Z,19.80
2018-06-28T07:30:36.585Z,19.90
2018-06-28T07:33:05.932Z,19.90
2018-06-28T07:35:35.188Z,19.90
2018-06-28T07:38:04.355Z,20.00
2018-06-28T07:40:36.294Z,20.00
2018-06-28T07:43:05.597Z,20.10
2018-06-28T07:45:37.365Z,20.20
2018-06-28T07:48:08.178Z,20.20
2018-06-28T07:50:40.652Z,20.30
2018-06-28T07:53:09.500Z,20.40
2018-06-28T07:55:42.170Z,20.50
2018-06-28T07:58:11.157Z,20.50
2018-06-28T08:00:45.348Z,20.50
2018-06-28T08:03:16.392Z,20.60
2018-06-28T08:05:47.243Z,20.70
2018-06-28T08:08:16.109Z,20.80
2018-06-28T08:10:54.438Z,20.80
2018-06-28T08:13:23.894Z,20.80
2018-06-28T08:15:53.314Z,20.80
2018-06-28T08:18:22.500Z,20.90
2018-06-28T08:20:56.492Z,21.00
2018-06-28T08:23:25.245Z,21.10
2018-06-28T08:25:59.327Z,21.20
2018-06-28T08:28:28.179Z,21.30
2018-06-28T08:31:01.019Z,21.40
2018-06-28T08:33:30.231Z,21.50
2018-06-28T08:36:03.182Z,21.60
2018-06-28T08:38:32.185Z,21.60
2018-06-28T08:41:06.593Z,21.60
2018-06-28T08:43:36.609Z,21.80
2018-06-28T08:46:09.787Z,21.80
2018-06-28T08:48:43.979Z,21.90
2018-06-28T08:51:13.074Z,22.00
2018-06-28T08:53:45.652Z,22.10
2018-06-28T08:56:15.683Z,22.30
2018-06-28T08:58:45.206Z,22.50
2018-06-28T09:01:17.577Z,22.70
2018-06-28T09:03:46.413Z,22.90
2018-06-28T09:08:48.174Z,23.30
2018-06-28T09:11:25.253Z,23.50
2018-06-28T09:13:56.432Z,23.60
2018-06-28T09:16:26.055Z,23.80
2018-06-28T09:18:58.341Z,24.10
2018-06-28T09:21:28.414Z,24.30
2018-06-28T09:23:58.122Z,24.60
2018-06-28T09:29:01.591Z,25.20
2018-06-28T09:31:32.305Z,25.50
2018-06-28T09:34:01.936Z,25.80
2018-06-28T09:36:36.336Z,25.90
2018-06-28T09:39:08.318Z,26.10
2018-06-28T09:41:37.733Z,26.40
2018-06-28T09:44:06.694Z,26.70
2018-06-28T09:46:38.587Z,26.80
2018-06-28T09:49:07.972Z,27.00
2018-06-28T09:51:41.270Z,27.20
2018-06-28T09:54:10.562Z,27.20
2018-06-28T09:56:44.607Z,27.30
2018-06-28T09:59:13.427Z,27.40
2018-06-28T10:01:46.749Z,27.60
2018-06-28T10:04:17.135Z,27.80
2018-06-28T10:06:49.066Z,28.10
2018-06-28T10:09:18.109Z,28.20
2018-06-28T10:11:51.258Z,28.40
2018-06-28T10:14:20.308Z,28.60
2018-06-28T10:16:54.276Z,28.60
2018-06-28T10:19:23.720Z,28.90
2018-06-28T10:21:57.613Z,29.00
2018-06-28T10:24:26.771Z,29.10
2018-06-28T10:26:59.653Z,29.30
2018-06-28T10:29:30.269Z,29.40
2018-06-28T10:32:03.218Z,29.40
2018-06-28T10:34:33.165Z,29.40
2018-06-28T10:37:04.695Z,29.30
2018-06-28T10:39:36.186Z,29.30
2018-06-28T10:42:08.471Z,29.50
2018-06-28T10:44:37.813Z,29.70
2018-06-28T10:47:10.682Z,29.90
2018-06-28T10:49:42.108Z,30.10
2018-06-28T10:54:47.737Z,30.00
2018-06-28T10:57:18.896Z,29.80
2018-06-28T10:59:52.826Z,29.80
2018-06-28T11:02:23.949Z,30.00
2018-06-28T11:04:54.642Z,30.00
2018-06-28T11:07:24.497Z,30.10
2018-06-28T11:09:54.188Z,30.20
2018-06-28T11:12:31.623Z,30.00
2018-06-28T11:15:01.661Z,29.80
2018-06-28T11:17:35.344Z,30.00
2018-06-28T11:20:05.245Z,30.20
2018-06-28T11:22:34.602Z,30.30
2018-06-28T11:25:07.661Z,30.40
2018-06-28T11:27:37.675Z,30.50
2018-06-28T11:30:10.604Z,30.20
2018-06-28T11:32:41.689Z,29.90
2018-06-28T11:35:11.709Z,30.20
2018-06-28T11:37:41.165Z,30.30
2018-06-28T11:40:10.549Z,30.50
2018-06-28T11:42:40.340Z,30.60
2018-06-28T11:45:10.361Z,30.50
2018-06-28T11:47:41.075Z,30.50
2018-06-28T11:50:13.113Z,30.60
2018-06-28T11:52:42.292Z,30.70
2018-06-28T11:57:44.865Z,31.00
2018-06-28T12:00:14.198Z,31.10
2018-06-28T12:02:51.882Z,31.20
2018-06-28T12:05:21.350Z,31.20
2018-06-28T12:07:52.194Z,31.00
2018-06-28T12:10:21.749Z,31.00
2018-06-28T12:12:55.620Z,31.00
2018-06-28T12:15:25.629Z,30.90
2018-06-28T12:17:55.715Z,30.80
2018-06-28T12:20:25.499Z,30.70
2018-06-28T12:23:02.642Z,30.50
2018-06-28T12:25:32.635Z,30.20
2018-06-28T12:28:02.773Z,30.00
2018-06-28T12:30:33.227Z,29.50
2018-06-28T12:33:04.231Z,29.00
2018-06-28T12:35:33.528Z,28.80
2018-06-28T12:38:11.073Z,28.60
2018-06-28T12:40:40.270Z,28.60
2018-06-28T12:43:09.556Z,28.80
2018-06-28T12:45:38.548Z,29.20
2018-06-28T12:48:18.194Z,29.60
2018-06-28T12:50:48.699Z,29.80
2018-06-28T12:53:20.385Z,30.00
2018-06-28T12:56:29.689Z,30.10
2018-06-28T12:58:59.981Z,30.20
2018-06-28T13:01:30.664Z,30.50
2018-06-28T13:03:59.691Z,30.50
2018-06-28T13:06:29.242Z,30.50
2018-06-28T13:11:28.845Z,30.10
2018-06-28T13:13:58.201Z,29.90
2018-06-28T13:16:28.096Z,29.60
2018-06-28T13:18:57.766Z,29.60
2018-06-28T13:21:28.677Z,29.70
2018-06-28T13:23:59.242Z,29.90
2018-06-28T13:26:30.733Z,30.00
2018-06-28T13:29:00.307Z,30.10
2018-06-28T13:31:32.186Z,30.20
2018-06-28T13:34:01.361Z,30.40
2018-06-28T13:36:40.208Z,30.40
2018-06-28T13:39:09.418Z,30.40
2018-06-28T13:41:38.932Z,30.20
2018-06-28T13:44:08.139Z,30.20
2018-06-28T13:46:40.334Z,30.40
2018-06-28T13:49:14.005Z,30.60
2018-06-28T13:51:44.182Z,30.80
2018-06-28T13:54:13.170Z,30.70
2018-06-28T13:56:47.413Z,30.80
2018-06-28T13:59:16.932Z,30.80
2018-06-28T14:01:48.729Z,30.70
2018-06-28T14:04:17.714Z,30.60
2018-06-28T14:07:02.190Z,30.70
2018-06-28T14:09:34.220Z,30.70
2018-06-28T14:12:05.286Z,30.60
2018-06-28T14:14:34.054Z,30.70
2018-06-28T14:17:03.527Z,30.70
2018-06-28T14:19:33.440Z,30.80
2018-06-28T14:22:04.316Z,30.90
2018-06-28T14:24:33.589Z,30.80
2018-06-28T14:27:04.173Z,30.50
2018-06-28T14:29:34.689Z,30.50
2018-06-28T14:32:04.684Z,30.60
2018-06-28T14:34:35.672Z,30.70
2018-06-28T14:37:07.696Z,30.50
2018-06-28T14:39:36.740Z,30.50
2018-06-28T14:42:12.274Z,30.50
2018-06-28T14:44:42.189Z,30.30
2018-06-28T14:47:15.290Z,30.30
2018-06-28T14:49:44.174Z,30.20
2018-06-28T14:52:15.783Z,30.10
2018-06-28T14:54:45.263Z,30.10
2018-06-28T14:57:19.181Z,30.10
2018-06-28T14:59:49.337Z,30.10
2018-06-28T15:04:50.668Z,30.00
2018-06-28T15:07:22.601Z,29.80
2018-06-28T15:09:52.746Z,29.80
2018-06-28T15:12:25.477Z,29.60
2018-06-28T15:14:57.112Z,29.60
2018-06-28T15:19:55.425Z,29.60
2018-06-28T15:22:32.604Z,29.60
2018-06-28T15:27:35.051Z,29.60
2018-06-28T15:30:04.329Z,29.50
2018-06-28T15:32:34.223Z,29.40
2018-06-28T15:35:04.313Z,29.30
2018-06-28T15:37:35.819Z,29.30
2018-06-28T15:40:05.484Z,29.30
2018-06-28T15:45:07.801Z,29.20
2018-06-28T15:47:40.449Z,29.10
2018-06-28T15:50:10.537Z,29.00
2018-06-28T15:52:44.750Z,28.90
2018-06-28T15:55:14.139Z,28.90
2018-06-28T15:57:46.256Z,28.70
2018-06-28T16:00:23.179Z,28.70
2018-06-28T16:02:52.695Z,28.70
2018-06-28T16:05:24.418Z,28.50
2018-06-28T16:07:53.698Z,28.40
2018-06-28T16:10:22.821Z,28.30
2018-06-28T16:12:54.484Z,28.20
2018-06-28T16:15:24.374Z,28.00
2018-06-28T16:17:56.973Z,27.90
2018-06-28T16:20:27.196Z,27.80
2018-06-28T16:22:59.948Z,27.70
2018-06-28T16:25:30.434Z,27.50
2018-06-28T16:28:03.196Z,27.40
2018-06-28T16:30:32.270Z,27.20
2018-06-28T16:33:05.147Z,27.20
2018-06-28T16:35:36.498Z,27.00
2018-06-28T16:38:08.415Z,27.00
2018-06-28T16:40:37.242Z,26.90
2018-06-28T16:43:18.614Z,26.90
2018-06-28T16:45:47.488Z,26.80
2018-06-28T16:48:17.509Z,26.80
2018-06-28T16:50:47.473Z,26.90
2018-06-28T16:53:17.287Z,26.70
2018-06-28T16:55:52.687Z,26.70
2018-06-28T16:58:22.393Z,26.70
2018-06-28T17:00:52.698Z,26.70
2018-06-28T17:03:21.700Z,26.60
2018-06-28T17:05:51.006Z,26.60
2018-06-28T17:08:25.432Z,26.60
2018-06-28T17:10:57.187Z,26.60
2018-06-28T17:13:28.710Z,26.60
2018-06-28T17:15:57.662Z,26.50
2018-06-28T17:18:27.452Z,26.40
2018-06-28T17:20:58.381Z,26.50
2018-06-28T17:23:30.274Z,26.40
2018-06-28T17:26:00.078Z,26.40
2018-06-28T17:28:32.720Z,26.30
2018-06-28T17:31:03.405Z,26.20
2018-06-28T17:33:33.959Z,26.20
2018-06-28T17:36:07.015Z,26.10
2018-06-28T17:38:37.305Z,26.00
2018-06-28T17:41:06.302Z,26.00
2018-06-28T17:43:42.804Z,26.00
2018-06-28T17:46:12.733Z,25.90
2018-06-28T17:48:43.568Z,25.90
2018-06-28T17:51:14.685Z,25.80
2018-06-28T17:53:45.236Z,25.80
2018-06-28T17:56:15.268Z,25.80
2018-06-28T18:01:16.584Z,25.70
2018-06-28T18:03:50.237Z,25.70
2018-06-28T18:06:21.540Z,25.70
2018-06-28T18:08:53.296Z,25.60
2018-06-28T18:11:23.294Z,25.60
2018-06-28T18:13:55.288Z,25.60
2018-06-28T18:16:26.362Z,25.50
2018-06-28T18:18:59.809Z,25.40
2018-06-28T18:21:34.242Z,25.40
2018-06-28T18:24:04.732Z,25.40
2018-06-28T18:26:33.820Z,25.30
2018-06-28T18:29:07.963Z,25.30
2018-06-28T18:31:40.253Z,25.30
2018-06-28T18:34:09.301Z,25.20
2018-06-28T18:36:39.444Z,25.20
2018-06-28T18:39:12.677Z,25.20
2018-06-28T18:41:42.472Z,25.10
2018-06-28T18:46:51.708Z,25.10
2018-06-28T18:49:21.237Z,25.00
2018-06-28T18:51:50.856Z,24.90
2018-06-28T18:54:22.466Z,24.90
2018-06-28T18:59:24.168Z,24.90
2018-06-28T19:01:58.793Z,24.80
2018-06-28T19:04:27.735Z,24.70
2018-06-28T19:06:57.405Z,24.70
2018-06-28T19:09:33.179Z,24.70
2018-06-28T19:12:03.694Z,24.60
2018-06-28T19:14:39.221Z,24.50
2018-06-28T19:17:09.193Z,24.50
2018-06-28T19:19:38.984Z,24.50
2018-06-28T19:22:13.532Z,24.40
2018-06-28T19:24:44.174Z,24.30
2018-06-28T19:27:13.320Z,24.30
2018-06-28T19:29:48.601Z,24.20
2018-06-28T19:35:04.296Z,24.20
2018-06-28T19:37:44.178Z,24.10
2018-06-28T19:40:20.636Z,24.10
2018-06-28T19:42:58.834Z,24.00
2018-06-28T19:45:45.183Z,23.90
2018-06-28T19:48:16.668Z,23.80
2018-06-28T19:50:51.054Z,23.80
2018-06-28T19:53:23.273Z,23.70
2018-06-28T19:55:53.822Z,23.60
2018-06-28T19:58:23.324Z,23.50
2018-06-28T20:00:59.333Z,23.40
2018-06-28T20:03:36.384Z,23.40
2018-06-28T20:06:06.246Z,23.30
2018-06-28T20:08:35.731Z,23.20
2018-06-28T20:11:05.342Z,23.10
2018-06-28T20:13:39.745Z,23.10
2018-06-28T20:16:16.168Z,23.00
2018-06-28T20:18:55.422Z,22.90
2018-06-28T20:21:26.658Z,22.90
2018-06-28T20:24:02.749Z,22.80
2018-06-28T20:26:37.198Z,22.80
2018-06-28T20:29:19.154Z,22.70
2018-06-28T20:32:02.591Z,22.60
2018-06-28T20:34:33.189Z,22.50
2018-06-28T20:37:08.702Z,22.50
2018-06-28T20:39:39.797Z,22.40
2018-06-28T20:42:15.716Z,22.40
2018-06-28T20:44:46.265Z,22.30
2018-06-28T20:47:24.820Z,22.30
2018-06-28T20:49:54.220Z,22.30
2018-06-28T20:52:24.747Z,22.20
2018-06-28T20:54:54.430Z,22.10
2018-06-28T20:57:26.759Z,22.10
2018-06-28T20:59:57.914Z,22.10
2018-06-28T21:02:30.463Z,22.10
2018-06-28T21:05:00.173Z,22.00
2018-06-28T21:07:29.339Z,22.00
2018-06-28T21:10:00.130Z,21.90
2018-06-28T21:15:02.797Z,21.90
2018-06-28T21:17:34.337Z,21.80
2018-06-28T21:20:04.581Z,21.80
2018-06-28T21:22:35.250Z,21.80
2018-06-28T21:25:05.570Z,21.80
2018-06-28T21:27:36.718Z,21.70
2018-06-28T21:30:08.449Z,21.70
2018-06-28T21:32:51.182Z,21.70
2018-06-28T21:35:24.394Z,21.60
2018-06-28T21:37:56.272Z,21.60
2018-06-28T21:40:44.339Z,21.50
2018-06-28T21:43:13.592Z,21.50
2018-06-28T21:45:44.118Z,21.40
2018-06-28T21:48:13.126Z,21.50
2018-06-28T21:50:47.473Z,21.40
2018-06-28T21:53:17.377Z,21.40
2018-06-28T21:55:47.733Z,21.40
2018-06-28T21:58:17.702Z,21.40
2018-06-28T22:00:48.343Z,21.30
2018-06-28T22:03:18.363Z,21.30
2018-06-28T22:05:51.257Z,21.30
2018-06-28T22:08:20.397Z,21.20
2018-06-28T22:10:56.159Z,21.20
2018-06-28T22:13:25.244Z,21.10
2018-06-28T22:15:58.196Z,21.00
2018-06-28T22:21:01.038Z,20.90
2018-06-28T22:23:30.041Z,20.90
2018-06-28T22:26:01.739Z,20.90
2018-06-28T22:28:30.850Z,20.80
2018-06-28T22:31:04.276Z,20.80
2018-06-28T22:33:34.754Z,20.80
2018-06-28T22:36:07.883Z,20.80
2018-06-28T22:38:37.849Z,20.80
2018-06-28T22:41:12.276Z,20.80
2018-06-28T22:43:41.967Z,20.80
2018-06-28T22:46:16.721Z,20.70
2018-06-28T22:55:37.428Z,20.80
2018-06-28T22:58:06.336Z,20.70
2018-06-28T23:00:35.178Z,20.70
2018-06-28T23:03:04.663Z,20.70
2018-06-28T23:05:33.809Z,20.70
2018-06-28T23:08:02.614Z,20.70
2018-06-28T23:10:32.496Z,20.60
2018-06-28T23:13:01.731Z,20.70
2018-06-28T23:15:30.659Z,20.60
2018-06-28T23:17:59.993Z,20.60
2018-06-28T23:20:30.610Z,20.60
2018-06-28T23:22:59.485Z,20.60
2018-06-28T23:25:29.159Z,20.70
2018-06-28T23:27:58.320Z,20.70
2018-06-28T23:30:34.707Z,20.70
2018-06-28T23:33:04.110Z,20.70
2018-06-28T23:35:37.521Z,20.70
2018-06-28T23:38:06.570Z,20.70
2018-06-28T23:40:36.289Z,20.70
2018-06-28T23:43:05.566Z,20.70
2018-06-28T23:45:38.957Z,20.60
2018-06-28T23:48:08.027Z,20.60
2018-06-28T23:50:44.383Z,20.60
2018-06-28T23:53:13.409Z,20.70
2018-06-28T23:55:44.350Z,20.60
2018-06-28T23:58:13.256Z,20.60
